Enter the Airport ICAO Code

Search by Airport or City

Current Weather

LEBB | Bilbao Airport

Bilbao, Basque Country, Spain

Last Update 28 Minutes Ago

Clear Sky

Temperature of 14 ºC

Moderate Winds from East

Temperature

14 ºC

Dew Point Temperature

06 ºC

Relative Humidity

58.65 %

Wind Direction

East (110º, Ranging from 080º to 150º)

Wind Velocity

24 km/h (13 kt)

Gusts

None

Visibility

No Significant Reductions

Sea Level Pressure

1001 hPa (Hectopascals)

Layers of Clouds

None

METAR LEBB 160800Z 11013KT 080V150 CAVOK 14/06 Q1001 NOSIG

Weather Forecast

LEBB | Bilbao Airport

Bilbao, Basque Country, Spain

Forecast valid for the next 22 Hours

From now on it is expected:

Partly Cloudy Sky

Light to Moderate Winds from SouthEast

In 16 to 18 hours it is expected the begining of:

Moderate Winds from NorthWest

Maximum Temperature

17 ºC in 7 Hours

Minimum Temperature

08 ºC in 22 Hours

TAF LEBB 160500Z 1606/1706 13009KT 9999 SCT055 TX17/1615Z TN08/1706Z BECMG 1700/1702 30010KT